Time;durP1;ratioP1;P1;durP2;ratioP2;P2;SDS_P1;SDS_P2;PMS_P1;PMS_P2;Temp;Humidity;BMP_temperature;BMP_pressure;BME280_temperature;BME280_humidity;BME280_pressure;Samples;Min_cycle;Max_cycle;Signal;HPM_P1;HPM_P2
2022/01/27 00:00:38;;;;;;;51.97;26.83;;;;;;;2.32;85.37;102400.03;4958272;29;20052;-85
2022/01/27 00:03:26;;;;;;;50.33;27.70;;;;;;;2.24;85.24;102391.72;4950663;29;20082;-84
2022/01/27 00:05:55;;;;;;;48.40;26.45;;;;;;;2.28;85.92;102395.88;4965080;28;20054;-84
2022/01/27 00:08:28;;;;;;;55.13;28.40;;;;;;;2.23;85.99;102399.53;4959973;29;20048;-83
2022/01/27 00:10:58;;;;;;;51.97;28.15;;;;;;;2.25;85.28;102402.91;4971349;29;20074;-85
2022/01/27 00:13:31;;;;;;;54.40;27.85;;;;;;;2.26;85.29;102413.19;4966807;29;20052;-86
2022/01/27 00:16:16;;;;;;;54.55;26.75;;;;;;;2.16;85.29;102403.25;4963970;29;20110;-84
2022/01/27 00:18:45;;;;;;;51.40;27.83;;;;;;;2.23;85.27;102408.13;4955983;29;20421;-85
2022/01/27 00:21:12;;;;;;;51.30;27.55;;;;;;;2.20;85.21;102404.81;4957542;29;20078;-86
2022/01/27 00:23:40;;;;;;;51.10;27.45;;;;;;;2.19;85.27;102393.66;4965626;28;20051;-86
2022/01/27 00:26:07;;;;;;;47.72;26.58;;;;;;;2.13;84.80;102367.22;4964700;29;20047;-86
2022/01/27 00:28:34;;;;;;;52.88;27.38;;;;;;;2.12;85.05;102373.28;4962969;29;20534;-86
2022/01/27 00:31:02;;;;;;;53.53;27.25;;;;;;;2.13;84.91;102383.56;4963381;29;20051;-86
2022/01/27 00:33:28;;;;;;;56.63;29.02;;;;;;;2.07;85.06;102372.63;4961545;29;20111;-86
2022/01/27 00:35:55;;;;;;;56.70;28.30;;;;;;;1.98;84.89;102363.47;4960174;29;20047;-87
2022/01/27 00:38:22;;;;;;;58.10;29.55;;;;;;;1.94;85.29;102365.31;4943627;29;20111;-87
2022/01/27 00:40:48;;;;;;;54.58;28.85;;;;;;;2.10;85.54;102367.34;4942392;29;20107;-85
2022/01/27 00:43:15;;;;;;;53.25;26.55;;;;;;;2.10;85.70;102362.16;4946289;29;20496;-86
2022/01/27 00:45:42;;;;;;;54.00;26.23;;;;;;;2.10;85.62;102375.09;4946339;29;20079;-86
2022/01/27 00:48:10;;;;;;;54.25;26.73;;;;;;;2.04;85.44;102363.25;4941872;29;20075;-86
2022/01/27 00:50:39;;;;;;;55.47;27.60;;;;;;;2.06;86.02;102373.50;4941577;29;20291;-87
2022/01/27 00:53:20;;;;;;;63.45;28.17;;;;;;;1.99;86.04;102355.66;4948690;29;20057;-86
2022/01/27 00:55:46;;;;;;;66.53;28.45;;;;;;;1.93;86.81;102340.41;4941517;29;20138;-87
2022/01/27 00:58:26;;;;;;;63.92;28.63;;;;;;;1.93;86.54;102342.16;4941733;29;20576;-86
2022/01/27 01:01:01;;;;;;;62.35;28.05;;;;;;;2.05;86.46;102349.44;4961401;29;20070;-87
2022/01/27 01:03:34;;;;;;;55.78;28.20;;;;;;;2.05;86.14;102339.09;4943791;28;20110;-86
2022/01/27 01:06:17;;;;;;;62.95;28.95;;;;;;;1.98;86.88;102335.91;4939280;29;20052;-86
2022/01/27 01:12:11;;;;;;;60.08;27.50;;;;;;;1.95;86.40;102323.13;4925225;29;20039;-85
2022/01/27 01:14:43;;;;;;;56.85;25.60;;;;;;;1.97;86.12;102307.56;4946103;29;20055;-84
2022/01/27 01:17:28;;;;;;;62.88;25.23;;;;;;;2.00;86.16;102290.22;4959906;29;20063;-86
2022/01/27 01:20:17;;;;;;;63.35;28.25;;;;;;;2.05;86.60;102282.28;4948897;29;20047;-85
2022/01/27 01:31:11;;;;;;;64.80;28.13;;;;;;;2.01;86.40;102275.56;4945810;29;20095;-84
2022/01/27 01:33:39;;;;;;;63.42;28.48;;;;;;;2.07;86.48;102275.34;4944146;29;20059;-84
2022/01/27 01:36:15;;;;;;;66.15;26.77;;;;;;;1.99;86.48;102259.31;4943968;29;20048;-84
2022/01/27 01:38:43;;;;;;;67.57;29.20;;;;;;;2.03;86.37;102278.94;4943893;29;20500;-83
2022/01/27 01:41:10;;;;;;;63.33;26.85;;;;;;;2.04;86.35;102265.13;4946341;29;20135;-83
2022/01/27 01:43:37;;;;;;;63.35;28.13;;;;;;;2.02;87.02;102264.34;4945004;29;20079;-83
2022/01/27 01:46:05;;;;;;;60.72;25.73;;;;;;;1.95;86.68;102265.47;4941839;29;20091;-83
2022/01/27 01:48:32;;;;;;;60.80;28.25;;;;;;;1.99;87.16;102283.38;4940420;29;20048;-83
2022/01/27 01:51:02;;;;;;;59.78;26.90;;;;;;;2.03;86.97;102286.69;4940620;29;20051;-83
2022/01/27 01:53:30;;;;;;;57.60;26.10;;;;;;;1.97;86.98;102284.34;4939620;29;20051;-82
2022/01/27 01:55:57;;;;;;;63.00;26.65;;;;;;;2.04;87.06;102279.78;4943145;29;20072;-84
2022/01/27 01:58:23;;;;;;;56.80;26.52;;;;;;;1.99;86.80;102264.47;4945805;29;20059;-85
2022/01/27 02:00:50;;;;;;;65.10;25.85;;;;;;;1.99;87.01;102249.81;4951749;29;20107;-86
2022/01/27 02:03:17;;;;;;;62.17;25.95;;;;;;;2.11;86.59;102279.47;4940924;29;20056;-83
2022/01/27 02:05:50;;;;;;;57.15;25.90;;;;;;;2.06;86.83;102276.22;4939654;29;20043;-84
2022/01/27 02:19:18;;;;;;;56.55;24.70;;;;;;;2.06;88.13;102263.31;4959647;28;20051;-84
2022/01/27 02:21:48;;;;;;;54.33;23.52;;;;;;;2.09;87.46;102260.63;4959794;28;20060;-85
2022/01/27 02:24:16;;;;;;;59.65;23.20;;;;;;;2.17;87.01;102249.97;4959340;28;20043;-84
2022/01/27 02:26:43;;;;;;;53.35;25.00;;;;;;;2.17;87.16;102257.72;4950832;29;20143;-83
2022/01/27 02:29:10;;;;;;;54.55;23.50;;;;;;;2.17;86.70;102243.06;4942647;29;20083;-83
2022/01/27 02:31:37;;;;;;;55.08;24.73;;;;;;;2.19;87.18;102254.19;4941507;29;20103;-83
2022/01/27 02:34:05;;;;;;;54.15;25.08;;;;;;;2.24;87.24;102241.94;4940868;29;20111;-83
2022/01/27 02:36:33;;;;;;;53.30;24.50;;;;;;;2.26;86.98;102242.69;4941064;29;20048;-84
2022/01/27 02:39:01;;;;;;;54.05;24.42;;;;;;;2.26;87.38;102234.13;4941972;29;20126;-84
2022/01/27 02:41:31;;;;;;;54.78;23.75;;;;;;;2.21;87.19;102249.81;4942598;29;20086;-84
2022/01/27 02:43:58;;;;;;;59.55;25.55;;;;;;;2.23;87.12;102208.41;4943108;29;20448;-84
2022/01/27 02:46:30;;;;;;;54.35;25.23;;;;;;;2.23;86.91;102224.75;4942044;29;20055;-84
2022/01/27 02:48:58;;;;;;;58.65;24.92;;;;;;;2.16;87.09;102217.31;4943460;29;20315;-84
2022/01/27 02:51:24;;;;;;;58.03;26.02;;;;;;;2.22;87.12;102220.50;4943108;29;20070;-85
2022/01/27 02:53:51;;;;;;;52.63;25.83;;;;;;;2.26;87.21;102203.97;4946510;29;20110;-82
2022/01/27 02:56:19;;;;;;;59.15;25.30;;;;;;;2.18;87.32;102200.84;4941900;29;20059;-82
2022/01/27 02:58:45;;;;;;;55.67;24.65;;;;;;;2.13;87.38;102197.63;4942118;29;20062;-83
2022/01/27 03:01:19;;;;;;;57.95;24.20;;;;;;;2.16;86.73;102192.34;4942576;29;20052;-83
2022/01/27 03:03:46;;;;;;;53.72;25.88;;;;;;;2.22;87.20;102196.41;4945713;29;20082;-83
2022/01/27 03:06:12;;;;;;;52.80;24.00;;;;;;;2.23;86.82;102188.59;4944580;29;20079;-83
2022/01/27 03:08:39;;;;;;;49.40;22.38;;;;;;;2.19;87.35;102202.53;4943086;29;20473;-81
2022/01/27 03:11:11;;;;;;;55.35;24.08;;;;;;;2.18;87.04;102190.53;4944038;29;20103;-82
2022/01/27 03:13:40;;;;;;;45.25;21.90;;;;;;;2.17;86.71;102201.75;4943991;29;20083;-84
2022/01/27 03:16:08;;;;;;;48.50;22.88;;;;;;;2.15;86.81;102200.13;4943266;29;20534;-84
2022/01/27 03:18:34;;;;;;;51.80;23.10;;;;;;;2.18;86.91;102211.19;4943428;29;20051;-83
2022/01/27 03:21:01;;;;;;;52.40;22.30;;;;;;;2.12;86.70;102195.94;4943378;29;20095;-84
2022/01/27 03:23:28;;;;;;;50.47;22.38;;;;;;;2.11;87.34;102198.59;4943090;29;20587;-84
2022/01/27 03:25:55;;;;;;;49.28;21.92;;;;;;;2.18;87.27;102198.28;4948925;29;20090;-84
2022/01/27 03:28:25;;;;;;;52.17;22.83;;;;;;;2.19;86.90;102181.88;4943937;29;20306;-84
2022/01/27 03:30:53;;;;;;;52.60;22.23;;;;;;;2.20;87.21;102169.81;4944068;29;20052;-83
2022/01/27 03:33:19;;;;;;;49.90;22.40;;;;;;;2.25;86.77;102163.53;4942011;29;20062;-84
2022/01/27 03:35:46;;;;;;;50.63;21.45;;;;;;;2.25;86.22;102162.69;4943015;29;20111;-84
2022/01/27 03:38:13;;;;;;;49.25;21.27;;;;;;;2.23;86.68;102151.59;4942117;29;20111;-83
2022/01/27 03:40:39;;;;;;;47.72;20.88;;;;;;;2.26;86.30;102159.22;4942447;29;20527;-84
2022/01/27 03:43:09;;;;;;;52.40;22.27;;;;;;;2.23;86.37;102167.94;4947447;29;20040;-84
2022/01/27 03:45:36;;;;;;;48.15;21.85;;;;;;;2.16;86.83;102145.84;4946926;29;20143;-84
2022/01/27 03:48:05;;;;;;;49.97;21.60;;;;;;;2.32;86.07;102154.63;4946810;29;20071;-84
2022/01/27 03:50:32;;;;;;;50.50;21.70;;;;;;;2.29;86.41;102156.50;4946205;29;20051;-83
2022/01/27 03:52:58;;;;;;;50.08;21.20;;;;;;;2.26;86.13;102126.47;4943275;29;20111;-83
2022/01/27 03:55:25;;;;;;;48.88;22.90;;;;;;;2.31;85.80;102134.03;4947070;29;20055;-83
2022/01/27 03:57:52;;;;;;;48.58;21.67;;;;;;;2.28;86.46;102135.00;4952494;29;20095;-82
2022/01/27 04:00:19;;;;;;;46.92;22.05;;;;;;;2.32;86.16;102131.38;4946021;29;20058;-81
2022/01/27 04:03:02;;;;;;;42.03;20.27;;;;;;;2.38;85.72;102119.91;4946378;29;20052;-83
2022/01/27 04:05:36;;;;;;;43.15;20.42;;;;;;;2.37;86.06;102123.41;4947372;29;20423;-84
2022/01/27 04:08:03;;;;;;;46.55;21.83;;;;;;;2.26;86.47;102099.81;4947205;29;20059;-83
2022/01/27 04:10:30;;;;;;;47.13;20.90;;;;;;;2.32;86.48;102110.72;4949461;29;20056;-83
2022/01/27 04:12:57;;;;;;;46.92;21.60;;;;;;;2.37;85.98;102109.66;4949376;29;20055;-83
2022/01/27 04:15:24;;;;;;;46.00;20.80;;;;;;;2.44;86.13;102139.47;4952422;29;20103;-83
2022/01/27 04:17:51;;;;;;;48.55;20.92;;;;;;;2.35;86.65;102139.91;4946207;29;20103;-82
2022/01/27 04:20:19;;;;;;;47.20;21.45;;;;;;;2.33;86.60;102140.81;4946628;29;20052;-83
2022/01/27 04:22:47;;;;;;;45.50;21.52;;;;;;;2.43;86.38;102136.06;4946905;29;20152;-83
2022/01/27 04:25:15;;;;;;;42.60;19.52;;;;;;;2.39;86.38;102128.50;4947396;29;20079;-83
2022/01/27 04:27:46;;;;;;;46.03;20.58;;;;;;;2.38;86.09;102121.66;4947348;29;20051;-83
2022/01/27 04:30:17;;;;;;;39.80;19.65;;;;;;;2.28;86.72;102118.66;4945940;29;20055;-83
2022/01/27 04:32:48;;;;;;;44.13;20.85;;;;;;;2.23;86.38;102112.84;4945590;29;20168;-84
2022/01/27 04:35:18;;;;;;;44.30;20.05;;;;;;;2.40;86.52;102120.69;4945755;29;20509;-83
2022/01/27 04:38:00;;;;;;;45.63;20.05;;;;;;;2.34;86.56;102115.81;4945910;29;20062;-82
2022/01/27 04:40:33;;;;;;;46.17;20.75;;;;;;;2.29;86.63;102103.09;4947243;29;20059;-83
2022/01/27 04:43:06;;;;;;;46.08;20.42;;;;;;;2.35;86.43;102101.16;4947359;29;20540;-84
2022/01/27 04:45:41;;;;;;;45.92;20.83;;;;;;;2.49;86.36;102098.78;4949234;29;20051;-84
2022/01/27 04:48:12;;;;;;;40.80;19.88;;;;;;;2.40;86.63;102091.44;4947544;29;20058;-83
2022/01/27 04:50:39;;;;;;;41.40;19.83;;;;;;;2.46;86.82;102098.91;4944602;29;20090;-83
2022/01/27 04:53:12;;;;;;;45.60;20.30;;;;;;;2.52;86.66;102085.72;4943034;29;20418;-83
2022/01/27 04:55:39;;;;;;;39.58;19.13;;;;;;;2.42;86.86;102089.63;4942550;29;20162;-83
2022/01/27 04:58:11;;;;;;;45.13;20.15;;;;;;;2.45;87.20;102094.66;4947068;29;20134;-83
2022/01/27 05:00:38;;;;;;;45.73;21.17;;;;;;;2.51;87.02;102079.72;4953101;29;20111;-84
2022/01/27 05:03:13;;;;;;;41.33;20.38;;;;;;;2.46;87.38;102088.56;4954103;29;20342;-83
2022/01/27 05:05:40;;;;;;;48.33;21.00;;;;;;;2.42;87.50;102079.28;4948041;29;20509;-83
2022/01/27 05:08:15;;;;;;;45.55;20.88;;;;;;;2.46;87.75;102083.41;4950121;29;20150;-84
2022/01/27 05:10:42;;;;;;;43.80;19.83;;;;;;;2.48;87.79;102069.50;4947023;29;20055;-83
2022/01/27 05:13:12;;;;;;;45.40;20.85;;;;;;;2.46;87.76;102061.00;4950983;29;20067;-84
2022/01/27 05:15:44;;;;;;;43.40;20.70;;;;;;;2.44;87.81;102051.63;4979765;23;20051;-84
2022/01/27 05:18:11;;;;;;;42.17;19.70;;;;;;;2.46;87.49;102044.66;4964731;28;20047;-84
2022/01/27 05:20:38;;;;;;;48.05;21.65;;;;;;;2.42;87.79;102043.94;4962848;29;20115;-84
2022/01/27 05:23:04;;;;;;;41.85;19.27;;;;;;;2.46;87.79;102030.00;4962098;29;20058;-85
2022/01/27 05:25:32;;;;;;;44.42;19.52;;;;;;;2.47;87.92;102015.31;4955471;29;20048;-83
2022/01/27 05:27:59;;;;;;;40.20;19.55;;;;;;;2.49;87.68;102013.50;4948736;29;20138;-85
2022/01/27 05:30:25;;;;;;;45.40;22.23;;;;;;;2.56;87.44;102009.75;4946625;29;20051;-84
2022/01/27 05:32:52;;;;;;;42.50;22.48;;;;;;;2.52;87.34;102009.03;4943986;29;20134;-84
2022/01/27 05:35:19;;;;;;;41.03;19.75;;;;;;;2.54;87.84;102001.22;4939067;29;20158;-85
2022/01/27 05:37:46;;;;;;;41.40;19.27;;;;;;;2.53;88.24;102007.28;4941513;29;20139;-84
2022/01/27 05:40:13;;;;;;;45.20;20.35;;;;;;;2.48;88.12;102001.50;4942254;29;20119;-84
2022/01/27 05:42:41;;;;;;;57.15;28.15;;;;;;;2.54;88.30;102006.38;4941616;29;20434;-85
2022/01/27 05:45:09;;;;;;;49.90;22.38;;;;;;;2.57;88.22;102001.91;4940997;29;20130;-83
2022/01/27 05:47:36;;;;;;;81.57;41.80;;;;;;;2.61;88.32;102005.19;4939956;29;20140;-84
2022/01/27 05:50:06;;;;;;;42.58;21.17;;;;;;;2.63;88.48;102005.97;4941709;29;20131;-85
2022/01/27 05:52:35;;;;;;;42.60;21.70;;;;;;;2.61;88.62;102002.63;4941911;29;20154;-83
2022/01/27 05:55:04;;;;;;;47.65;21.92;;;;;;;2.74;88.44;101993.38;4940638;29;20110;-84
2022/01/27 05:57:31;;;;;;;46.08;24.83;;;;;;;2.77;88.95;101993.25;4940721;29;20055;-84
2022/01/27 05:59:59;;;;;;;42.30;21.38;;;;;;;2.87;88.81;101985.88;4939798;29;20130;-83
2022/01/27 06:02:40;;;;;;;52.28;22.23;;;;;;;2.86;88.40;101969.50;4940524;29;20078;-84
2022/01/27 06:05:15;;;;;;;45.47;21.02;;;;;;;2.94;88.31;101956.22;4940776;29;20131;-86
2022/01/27 06:07:56;;;;;;;44.03;22.60;;;;;;;3.20;88.03;101966.13;4941536;29;20052;-85
2022/01/27 06:10:38;;;;;;;43.45;21.40;;;;;;;3.27;88.75;101970.09;4940871;29;20090;-84
2022/01/27 06:13:09;;;;;;;43.05;21.52;;;;;;;3.38;88.23;101951.41;4941993;29;20052;-85
2022/01/27 06:15:37;;;;;;;38.88;20.73;;;;;;;3.41;87.99;101933.16;4922535;29;20051;-84
2022/01/27 06:18:04;;;;;;;44.08;21.65;;;;;;;3.53;87.72;101937.72;4940115;29;20055;-84
2022/01/27 06:20:32;;;;;;;41.92;22.42;;;;;;;3.49;87.93;101931.03;4952249;28;20087;-84
2022/01/27 06:22:59;;;;;;;44.00;23.08;;;;;;;3.70;87.52;101933.44;4960304;28;20102;-83
2022/01/27 06:25:27;;;;;;;38.30;20.55;;;;;;;3.78;87.43;101936.44;4960084;28;20115;-86
2022/01/27 06:27:54;;;;;;;39.53;23.05;;;;;;;3.82;87.69;101935.34;4960306;29;20057;-83
2022/01/27 06:30:21;;;;;;;38.30;21.65;;;;;;;3.86;87.48;101932.50;4960022;29;20468;-83
2022/01/27 06:32:49;;;;;;;39.83;20.85;;;;;;;3.92;87.37;101944.31;4959097;28;20086;-83
2022/01/27 06:35:16;;;;;;;41.35;22.08;;;;;;;3.97;86.81;101931.94;4958400;28;20083;-83
2022/01/27 06:37:45;;;;;;;39.42;20.80;;;;;;;4.06;86.72;101931.47;4958787;29;20105;-83
2022/01/27 06:40:14;;;;;;;39.35;19.88;;;;;;;4.05;86.51;101924.63;4959085;28;20058;-83
2022/01/27 06:42:41;;;;;;;37.70;20.67;;;;;;;4.07;86.69;101916.75;4959440;29;20097;-83
2022/01/27 06:45:08;;;;;;;38.47;20.00;;;;;;;4.14;86.17;101910.34;4958254;28;20130;-81
2022/01/27 06:47:35;;;;;;;40.50;20.73;;;;;;;4.20;85.66;101904.81;4975792;28;20043;-83
2022/01/27 06:50:03;;;;;;;42.53;19.10;;;;;;;4.17;86.34;101890.28;4977375;28;20059;-83
2022/01/27 06:52:30;;;;;;;41.58;21.92;;;;;;;4.25;85.62;101900.22;4977770;28;20048;-84
2022/01/27 06:54:57;;;;;;;42.15;21.20;;;;;;;4.19;86.36;101896.22;4970149;28;20114;-82
2022/01/27 06:57:24;;;;;;;35.63;19.92;;;;;;;4.27;85.94;101900.94;4959610;28;20086;-82
2022/01/27 06:59:52;;;;;;;35.17;18.67;;;;;;;4.30;86.00;101898.19;4962286;28;20115;-82
2022/01/27 07:02:18;;;;;;;39.15;19.95;;;;;;;4.48;87.43;101892.00;4965117;29;20067;-82
2022/01/27 07:04:45;;;;;;;36.95;18.90;;;;;;;4.46;85.60;101877.44;4964801;28;20106;-82
2022/01/27 07:07:13;;;;;;;35.97;19.83;;;;;;;4.49;85.24;101877.28;4971912;28;20305;-82
2022/01/27 07:09:40;;;;;;;38.10;19.58;;;;;;;4.40;85.26;101872.59;4972368;29;20059;-82
2022/01/27 07:12:08;;;;;;;39.90;21.00;;;;;;;4.34;85.35;101884.97;4968638;29;20099;-85
2022/01/27 07:14:34;;;;;;;37.47;20.60;;;;;;;4.34;85.24;101884.97;4962860;28;20427;-84
2022/01/27 07:17:03;;;;;;;40.67;20.30;;;;;;;4.47;85.33;101869.59;4962581;29;20051;-85
2022/01/27 07:19:30;;;;;;;38.58;20.92;;;;;;;4.48;85.33;101873.00;4961392;29;20574;-85
2022/01/27 07:21:57;;;;;;;40.67;20.88;;;;;;;4.44;85.46;101864.56;4964023;29;20089;-84
2022/01/27 07:24:25;;;;;;;37.78;19.58;;;;;;;4.48;85.35;101878.19;4962881;28;20122;-83
2022/01/27 07:26:51;;;;;;;38.55;19.80;;;;;;;4.43;85.04;101880.22;4962303;29;20082;-83
2022/01/27 07:29:18;;;;;;;36.33;20.00;;;;;;;4.45;85.33;101862.81;4961264;29;20070;-83
2022/01/27 07:31:45;;;;;;;38.15;19.35;;;;;;;4.51;84.85;101876.28;4961370;28;20079;-84
2022/01/27 07:34:12;;;;;;;37.42;19.77;;;;;;;4.56;84.81;101873.41;4962898;28;20108;-84
2022/01/27 07:36:40;;;;;;;41.88;20.40;;;;;;;4.61;84.98;101867.06;4962752;29;20051;-84
2022/01/27 07:39:12;;;;;;;36.40;19.63;;;;;;;4.60;85.17;101869.72;4962610;29;20119;-84
2022/01/27 07:41:40;;;;;;;35.00;19.63;;;;;;;4.63;85.18;101869.56;4961894;29;20468;-83
2022/01/27 07:44:09;;;;;;;37.70;20.55;;;;;;;4.71;84.93;101862.19;4960348;28;20048;-83
2022/01/27 07:46:36;;;;;;;35.15;19.42;;;;;;;4.77;85.17;101856.63;4965610;29;20086;-85
2022/01/27 07:49:06;;;;;;;42.28;20.20;;;;;;;4.75;85.18;101853.28;4966383;29;20075;-85
2022/01/27 07:51:33;;;;;;;39.40;19.63;;;;;;;4.80;85.36;101851.25;4966295;29;20547;-82
2022/01/27 07:54:00;;;;;;;41.88;20.77;;;;;;;4.74;85.19;101858.53;4964179;29;20131;-85
2022/01/27 07:56:27;;;;;;;39.88;19.30;;;;;;;4.83;85.19;101858.03;4961756;28;20097;-85
2022/01/27 07:58:56;;;;;;;38.05;19.13;;;;;;;4.77;85.21;101851.44;4961592;29;20053;-84
2022/01/27 08:01:23;;;;;;;41.92;20.45;;;;;;;4.92;85.38;101853.13;4962877;29;20082;-84
2022/01/27 08:03:50;;;;;;;48.63;26.98;;;;;;;4.91;85.07;101854.06;4962508;29;20051;-84
2022/01/27 08:06:19;;;;;;;40.60;20.55;;;;;;;4.82;85.15;101833.84;4971151;28;20079;-84
2022/01/27 08:08:46;;;;;;;34.92;19.23;;;;;;;4.88;84.92;101828.31;4970201;29;20091;-84
2022/01/27 08:11:13;;;;;;;35.40;18.88;;;;;;;5.08;84.84;101834.09;4970907;29;20093;-85
2022/01/27 08:13:41;;;;;;;36.90;20.20;;;;;;;5.10;84.25;101829.63;4970893;29;20051;-85
2022/01/27 08:16:09;;;;;;;39.08;20.42;;;;;;;5.14;84.21;101833.72;4970274;28;20191;-85
2022/01/27 08:18:36;;;;;;;36.97;19.35;;;;;;;5.22;85.29;101844.44;4970409;29;20071;-83
2022/01/27 08:21:03;;;;;;;37.42;19.05;;;;;;;5.06;84.97;101831.59;4970057;29;20055;-84
2022/01/27 08:23:30;;;;;;;37.03;19.90;;;;;;;5.07;85.25;101835.84;4970043;29;20064;-83
2022/01/27 08:26:04;;;;;;;37.22;19.45;;;;;;;5.15;84.91;101856.97;4970344;28;20051;-82
2022/01/27 08:28:36;;;;;;;37.38;19.35;;;;;;;5.22;85.00;101868.63;4970136;29;20086;-84
2022/01/27 08:31:04;;;;;;;40.07;19.40;;;;;;;5.20;85.31;101862.72;4970991;29;20078;-84
2022/01/27 08:33:33;;;;;;;41.33;19.92;;;;;;;5.09;85.55;101838.34;4967278;29;20098;-84
2022/01/27 08:36:00;;;;;;;40.55;19.38;;;;;;;5.25;85.15;101862.44;4966616;28;20065;-82
2022/01/27 08:38:28;;;;;;;41.25;19.88;;;;;;;5.18;85.63;101861.16;4965175;29;20058;-84
2022/01/27 08:41:04;;;;;;;41.53;20.85;;;;;;;5.09;85.93;101856.50;4964773;29;20052;-85
2022/01/27 08:43:31;;;;;;;39.03;20.73;;;;;;;5.17;86.29;101846.50;4966619;28;20058;-84
2022/01/27 08:46:00;;;;;;;42.30;21.38;;;;;;;5.11;86.75;101839.94;4968869;28;20102;-86
2022/01/27 08:48:28;;;;;;;42.92;21.98;;;;;;;5.08;87.09;101826.31;4968567;29;20078;-84
2022/01/27 08:51:00;;;;;;;45.25;21.83;;;;;;;5.20;87.72;101830.75;4968335;29;20051;-84
2022/01/27 08:53:30;;;;;;;41.20;21.20;;;;;;;5.26;86.92;101832.97;4970124;29;20051;-81
2022/01/27 08:55:57;;;;;;;42.85;22.70;;;;;;;5.32;86.93;101830.00;4966822;28;20396;-83
2022/01/27 08:58:25;;;;;;;46.25;20.92;;;;;;;5.30;87.76;101824.06;4968105;29;20044;-84
2022/01/27 09:00:52;;;;;;;42.83;21.67;;;;;;;5.28;88.41;101831.09;4969126;29;20092;-84
2022/01/27 09:03:19;;;;;;;47.17;22.42;;;;;;;5.26;88.27;101841.59;4968177;29;20075;-84
2022/01/27 09:05:46;;;;;;;44.78;21.73;;;;;;;5.27;88.57;101850.19;4967300;28;20094;-83
2022/01/27 09:08:14;;;;;;;39.40;20.85;;;;;;;5.21;89.15;101850.56;4966970;29;20055;-85
2022/01/27 09:10:41;;;;;;;46.65;21.55;;;;;;;5.14;89.15;101844.94;4966761;29;20067;-84
2022/01/27 09:13:09;;;;;;;45.97;22.35;;;;;;;5.11;90.17;101854.66;4967350;29;20091;-83
2022/01/27 09:15:35;;;;;;;49.75;22.48;;;;;;;5.03;90.64;101854.28;4970881;28;20476;-83
2022/01/27 09:18:02;;;;;;;48.08;22.73;;;;;;;5.03;91.20;101857.69;4973053;29;20085;-83
2022/01/27 09:20:31;;;;;;;44.67;22.13;;;;;;;4.95;92.57;101849.53;4972380;29;20078;-84
2022/01/27 09:23:00;;;;;;;50.83;24.30;;;;;;;4.88;93.66;101846.47;4967121;29;20106;-83
2022/01/27 09:25:39;;;;;;;46.53;22.88;;;;;;;4.77;94.65;101842.81;4966995;28;20082;-85
2022/01/27 09:28:06;;;;;;;50.05;24.60;;;;;;;4.71;95.25;101838.84;4966459;29;20056;-84
2022/01/27 09:30:33;;;;;;;51.50;24.98;;;;;;;4.69;95.41;101848.47;4966314;29;20059;-83
2022/01/27 09:33:00;;;;;;;51.25;24.13;;;;;;;4.69;96.55;101830.31;4966156;29;20071;-85
2022/01/27 09:35:27;;;;;;;50.45;24.42;;;;;;;4.66;96.58;101823.56;4965406;28;20066;-84
2022/01/27 09:37:53;;;;;;;48.22;25.27;;;;;;;4.69;97.34;101824.31;4966385;29;20114;-85
2022/01/27 09:40:20;;;;;;;46.95;24.95;;;;;;;4.66;97.18;101818.38;4966794;29;20097;-84
2022/01/27 09:42:51;;;;;;;47.13;24.35;;;;;;;4.66;97.70;101838.28;4964923;29;20066;-84
2022/01/27 09:45:18;;;;;;;48.00;23.98;;;;;;;4.61;97.60;101829.94;4965444;28;20066;-83
2022/01/27 09:47:53;;;;;;;51.88;25.00;;;;;;;4.60;98.55;101829.09;4965509;29;20083;-85
2022/01/27 09:50:27;;;;;;;52.47;24.65;;;;;;;4.64;98.22;101829.75;4965449;29;20138;-84
2022/01/27 09:52:54;;;;;;;51.72;24.38;;;;;;;4.68;98.66;101833.84;4966149;29;20051;-84
2022/01/27 09:55:21;;;;;;;52.22;24.00;;;;;;;4.69;98.63;101832.09;4964968;28;20101;-83
2022/01/27 09:57:53;;;;;;;49.60;25.75;;;;;;;4.67;98.51;101832.16;4965031;29;20120;-83
2022/01/27 10:00:21;;;;;;;52.70;25.38;;;;;;;4.71;98.36;101828.47;4965906;29;20074;-83
2022/01/27 10:03:08;;;;;;;53.80;23.98;;;;;;;4.72;98.19;101832.75;4965247;29;20150;-84
2022/01/27 10:05:38;;;;;;;51.10;25.27;;;;;;;4.78;98.69;101824.56;4964129;28;20082;-83
2022/01/27 10:08:09;;;;;;;57.95;25.50;;;;;;;4.74;98.23;101825.69;4964102;29;20047;-83
2022/01/27 10:10:38;;;;;;;49.20;25.52;;;;;;;4.75;99.07;101822.16;4964448;29;20051;-83
2022/01/27 10:13:08;;;;;;;52.85;25.25;;;;;;;4.82;98.42;101825.22;4965166;29;20047;-83
2022/01/27 10:15:40;;;;;;;54.78;25.90;;;;;;;4.84;99.02;101831.16;4964941;28;20051;-84
2022/01/27 10:18:10;;;;;;;50.38;25.30;;;;;;;4.87;99.18;101820.63;4966118;29;20121;-85
2022/01/27 10:20:39;;;;;;;51.15;25.85;;;;;;;4.83;98.65;101807.00;4964249;29;20114;-85
2022/01/27 10:23:11;;;;;;;51.65;25.15;;;;;;;4.92;98.44;101816.81;4965546;29;20098;-84
2022/01/27 10:25:46;;;;;;;55.60;24.43;;;;;;;4.88;98.31;101812.75;4964185;28;20143;-84
2022/01/27 10:28:30;;;;;;;52.25;24.73;;;;;;;4.90;98.31;101808.31;4963773;29;20098;-84
2022/01/27 10:31:02;;;;;;;53.22;24.70;;;;;;;5.03;99.10;101812.75;4963185;29;20109;-84
2022/01/27 10:33:41;;;;;;;49.53;24.10;;;;;;;5.00;98.61;101800.81;4963456;29;20419;-84
2022/01/27 10:36:18;;;;;;;43.63;23.90;;;;;;;4.97;99.04;101807.00;4963737;28;20086;-83
2022/01/27 10:38:45;;;;;;;43.17;22.27;;;;;;;5.04;98.92;101811.84;4964454;29;20073;-84
2022/01/27 10:41:11;;;;;;;43.55;21.90;;;;;;;5.07;99.01;101811.66;4965357;29;20058;-84
2022/01/27 10:43:40;;;;;;;44.97;22.20;;;;;;;5.12;98.71;101800.09;4970092;29;20087;-85
2022/01/27 10:46:12;;;;;;;42.85;23.67;;;;;;;5.16;98.51;101800.72;4976414;28;20039;-84
2022/01/27 10:48:45;;;;;;;43.20;22.67;;;;;;;5.22;98.05;101798.56;4973744;29;20055;-85
2022/01/27 10:51:18;;;;;;;42.17;20.85;;;;;;;5.26;98.33;101802.66;4965934;28;20047;-85
2022/01/27 10:53:56;;;;;;;46.05;21.90;;;;;;;5.31;98.48;101799.78;4963318;29;20051;-84
2022/01/27 10:56:24;;;;;;;39.30;22.30;;;;;;;5.33;97.94;101803.13;4963444;28;20055;-85
2022/01/27 10:58:54;;;;;;;41.63;21.20;;;;;;;5.28;98.69;101803.41;4963573;29;20106;-85
2022/01/27 11:01:27;;;;;;;39.78;21.85;;;;;;;5.30;98.78;101800.72;4963597;29;20074;-83
2022/01/27 11:03:55;;;;;;;;;;;;;;;5.23;98.79;101807.19;4964239;29;20083;-84
2022/01/27 11:06:25;;;;;;;39.33;20.73;;;;;;;5.22;98.64;101805.53;4963264;28;19949;-84
2022/01/27 11:08:56;;;;;;;39.80;20.85;;;;;;;5.24;99.10;101806.28;4963182;29;20065;-84
2022/01/27 11:11:24;;;;;;;41.85;21.98;;;;;;;5.24;99.53;101798.47;4967815;29;20079;-84
2022/01/27 11:13:53;;;;;;;39.40;21.88;;;;;;;5.26;99.57;101791.44;4965330;29;20047;-86
2022/01/27 11:16:30;;;;;;;42.95;21.52;;;;;;;5.32;99.04;101798.84;4984806;23;20051;-83
2022/01/27 11:19:12;;;;;;;35.85;21.13;;;;;;;5.35;99.56;101780.50;4955165;29;20138;-84
2022/01/27 11:21:41;;;;;;;37.10;21.07;;;;;;;5.44;99.33;101773.91;4964809;29;20047;-84
2022/01/27 11:24:15;;;;;;;39.30;20.88;;;;;;;5.56;99.37;101784.38;4962642;29;20074;-83
2022/01/27 11:26:44;;;;;;;33.38;18.67;;;;;;;5.63;99.28;101790.88;4962617;28;20065;-85
2022/01/27 11:29:15;;;;;;;40.65;20.23;;;;;;;5.62;99.41;101778.81;4965154;29;20078;-85
2022/01/27 11:32:13;;;;;;;40.50;20.25;;;;;;;5.51;99.07;101755.28;4963072;29;20416;-85
2022/01/27 11:34:51;;;;;;;30.90;18.17;;;;;;;5.50;98.93;101738.03;4950586;28;20051;-83
2022/01/27 11:37:30;;;;;;;30.42;18.15;;;;;;;5.55;98.73;101755.91;4962989;28;20436;-83
2022/01/27 11:40:03;;;;;;;30.17;17.77;;;;;;;5.61;99.07;101750.34;4963152;29;20043;-84
2022/01/27 11:43:03;;;;;;;34.85;17.73;;;;;;;5.76;99.30;101764.94;4962406;29;20078;-84
2022/01/27 11:45:35;;;;;;;32.47;17.98;;;;;;;5.65;98.68;101750.06;4960304;29;20058;-83
2022/01/27 11:48:08;;;;;;;32.60;18.30;;;;;;;5.74;99.05;101758.16;4963231;28;20082;-84
2022/01/27 11:50:49;;;;;;;29.17;17.10;;;;;;;5.69;99.19;101748.06;4961388;29;20810;-84